sensor_id;sensor_type;location;lat;lon;timestamp;temperature;humidity
2929;DHT22;1474;51.460;7.150;2023-12-14T06:02:31;16.90;60.80
2929;DHT22;1474;51.460;7.150;2023-12-14T06:04:58;16.90;60.90
2929;DHT22;1474;51.460;7.150;2023-12-14T06:07:24;16.90;60.70
2929;DHT22;1474;51.460;7.150;2023-12-14T06:09:51;17.00;60.70
2929;DHT22;1474;51.460;7.150;2023-12-14T06:12:16;16.90;60.60
2929;DHT22;1474;51.460;7.150;2023-12-14T06:14:42;16.90;60.60
2929;DHT22;1474;51.460;7.150;2023-12-14T06:17:10;17.00;60.60
2929;DHT22;1474;51.460;7.150;2023-12-14T06:19:36;17.00;60.60
2929;DHT22;1474;51.460;7.150;2023-12-14T06:22:01;17.00;60.50
2929;DHT22;1474;51.460;7.150;2023-12-14T06:24:27;17.00;60.50
2929;DHT22;1474;51.460;7.150;2023-12-14T06:26:53;17.00;61.10
2929;DHT22;1474;51.460;7.150;2023-12-14T06:29:18;17.00;60.60
2929;DHT22;1474;51.460;7.150;2023-12-14T06:31:45;17.00;60.50
2929;DHT22;1474;51.460;7.150;2023-12-14T06:34:11;17.00;60.50
2929;DHT22;1474;51.460;7.150;2023-12-14T06:36:42;17.00;60.50
2929;DHT22;1474;51.460;7.150;2023-12-14T06:39:09;17.00;60.50
2929;DHT22;1474;51.460;7.150;2023-12-14T06:41:36;17.00;60.50
2929;DHT22;1474;51.460;7.150;2023-12-14T06:44:02;17.00;60.50
2929;DHT22;1474;51.460;7.150;2023-12-14T06:46:28;17.00;60.50
2929;DHT22;1474;51.460;7.150;2023-12-14T06:48:54;17.00;60.40
2929;DHT22;1474;51.460;7.150;2023-12-14T06:51:21;17.00;60.40
2929;DHT22;1474;51.460;7.150;2023-12-14T06:53:47;17.00;60.40
2929;DHT22;1474;51.460;7.150;2023-12-14T06:56:14;17.00;60.40
2929;DHT22;1474;51.460;7.150;2023-12-14T06:58:41;17.00;60.40
2929;DHT22;1474;51.460;7.150;2023-12-14T07:01:15;17.00;60.40
2929;DHT22;1474;51.460;7.150;2023-12-14T07:03:42;17.00;60.40
2929;DHT22;1474;51.460;7.150;2023-12-14T07:06:15;17.00;60.40
2929;DHT22;1474;51.460;7.150;2023-12-14T07:08:44;17.00;60.40
2929;DHT22;1474;51.460;7.150;2023-12-14T07:11:11;17.00;60.40
2929;DHT22;1474;51.460;7.150;2023-12-14T07:13:37;17.00;60.40
2929;DHT22;1474;51.460;7.150;2023-12-14T07:16:07;17.00;60.40
2929;DHT22;1474;51.460;7.150;2023-12-14T07:18:38;17.00;60.40
2929;DHT22;1474;51.460;7.150;2023-12-14T07:21:06;17.00;60.30
2929;DHT22;1474;51.460;7.150;2023-12-14T07:23:34;17.00;60.40
2929;DHT22;1474;51.460;7.150;2023-12-14T07:26:00;17.00;60.40
2929;DHT22;1474;51.460;7.150;2023-12-14T07:28:27;17.00;60.40
2929;DHT22;1474;51.460;7.150;2023-12-14T07:30:53;17.00;60.30
2929;DHT22;1474;51.460;7.150;2023-12-14T07:33:19;17.00;60.30
2929;DHT22;1474;51.460;7.150;2023-12-14T07:35:45;17.00;60.30
2929;DHT22;1474;51.460;7.150;2023-12-14T07:38:11;17.00;60.30
2929;DHT22;1474;51.460;7.150;2023-12-14T07:40:37;17.00;60.30
2929;DHT22;1474;51.460;7.150;2023-12-14T07:43:04;17.00;60.30
2929;DHT22;1474;51.460;7.150;2023-12-14T07:45:30;17.00;60.80
2929;DHT22;1474;51.460;7.150;2023-12-14T07:47:56;17.00;60.30
2929;DHT22;1474;51.460;7.150;2023-12-14T07:50:22;17.00;60.30
2929;DHT22;1474;51.460;7.150;2023-12-14T07:52:48;17.00;60.30
2929;DHT22;1474;51.460;7.150;2023-12-14T07:55:14;17.00;60.30
2929;DHT22;1474;51.460;7.150;2023-12-14T07:57:40;17.00;60.80
2929;DHT22;1474;51.460;7.150;2023-12-14T08:00:06;17.00;60.30
2929;DHT22;1474;51.460;7.150;2023-12-14T08:02:36;17.00;60.30
2929;DHT22;1474;51.460;7.150;2023-12-14T08:05:03;17.00;60.30
2929;DHT22;1474;51.460;7.150;2023-12-14T08:07:30;17.00;60.30
2929;DHT22;1474;51.460;7.150;2023-12-14T08:09:56;17.00;60.30
2929;DHT22;1474;51.460;7.150;2023-12-14T08:12:23;17.00;60.30
2929;DHT22;1474;51.460;7.150;2023-12-14T08:14:50;17.00;60.30
2929;DHT22;1474;51.460;7.150;2023-12-14T08:17:15;17.00;60.30
2929;DHT22;1474;51.460;7.150;2023-12-14T08:19:42;17.00;60.30
2929;DHT22;1474;51.460;7.150;2023-12-14T08:22:08;17.00;60.30
2929;DHT22;1474;51.460;7.150;2023-12-14T08:24:37;16.90;60.20
2929;DHT22;1474;51.460;7.150;2023-12-14T08:27:03;17.00;60.30
2929;DHT22;1474;51.460;7.150;2023-12-14T08:29:29;17.00;60.30
2929;DHT22;1474;51.460;7.150;2023-12-14T08:31:55;16.90;60.20
2929;DHT22;1474;51.460;7.150;2023-12-14T08:34:24;17.00;60.30
2929;DHT22;1474;51.460;7.150;2023-12-14T08:36:50;16.90;60.20
2929;DHT22;1474;51.460;7.150;2023-12-14T08:39:15;17.00;60.30
2929;DHT22;1474;51.460;7.150;2023-12-14T08:41:41;17.00;60.30
2929;DHT22;1474;51.460;7.150;2023-12-14T08:44:07;16.90;60.20
2929;DHT22;1474;51.460;7.150;2023-12-14T08:46:41;17.00;60.30
2929;DHT22;1474;51.460;7.150;2023-12-14T08:49:08;17.00;60.30
2929;DHT22;1474;51.460;7.150;2023-12-14T08:51:34;17.00;60.30
2929;DHT22;1474;51.460;7.150;2023-12-14T08:54:00;17.00;60.30
2929;DHT22;1474;51.460;7.150;2023-12-14T08:56:25;17.00;60.30
2929;DHT22;1474;51.460;7.150;2023-12-14T08:58:51;17.00;60.80
2929;DHT22;1474;51.460;7.150;2023-12-14T09:01:22;16.90;60.20
2929;DHT22;1474;51.460;7.150;2023-12-14T09:03:49;16.90;60.20
2929;DHT22;1474;51.460;7.150;2023-12-14T09:06:16;16.90;60.20
2929;DHT22;1474;51.460;7.150;2023-12-14T09:08:44;16.90;60.20
2929;DHT22;1474;51.460;7.150;2023-12-14T09:11:11;17.00;60.30
2929;DHT22;1474;51.460;7.150;2023-12-14T09:13:37;16.90;60.30
2929;DHT22;1474;51.460;7.150;2023-12-14T09:16:03;17.00;60.40
2929;DHT22;1474;51.460;7.150;2023-12-14T09:18:29;17.00;60.40
2929;DHT22;1474;51.460;7.150;2023-12-14T09:20:56;17.00;60.40
2929;DHT22;1474;51.460;7.150;2023-12-14T09:23:21;16.90;60.30
2929;DHT22;1474;51.460;7.150;2023-12-14T09:25:47;17.00;60.40
2929;DHT22;1474;51.460;7.150;2023-12-14T09:28:13;16.90;60.40
2929;DHT22;1474;51.460;7.150;2023-12-14T09:30:39;16.90;60.40
2929;DHT22;1474;51.460;7.150;2023-12-14T09:33:04;16.90;60.40
2929;DHT22;1474;51.460;7.150;2023-12-14T09:35:31;16.90;60.30
2929;DHT22;1474;51.460;7.150;2023-12-14T09:37:57;16.90;60.40
2929;DHT22;1474;51.460;7.150;2023-12-14T09:40:22;16.90;60.30
2929;DHT22;1474;51.460;7.150;2023-12-14T09:42:49;16.90;60.30
2929;DHT22;1474;51.460;7.150;2023-12-14T09:45:17;16.90;60.30
2929;DHT22;1474;51.460;7.150;2023-12-14T09:47:44;17.00;60.30
2929;DHT22;1474;51.460;7.150;2023-12-14T09:50:12;16.90;60.30
2929;DHT22;1474;51.460;7.150;2023-12-14T09:52:40;16.90;60.30
2929;DHT22;1474;51.460;7.150;2023-12-14T09:55:10;16.90;60.30
2929;DHT22;1474;51.460;7.150;2023-12-14T09:57:37;16.90;60.30
2929;DHT22;1474;51.460;7.150;2023-12-14T10:00:03;16.90;60.30
2929;DHT22;1474;51.460;7.150;2023-12-14T10:02:32;16.90;60.20
2929;DHT22;1474;51.460;7.150;2023-12-14T10:04:57;16.90;60.20
2929;DHT22;1474;51.460;7.150;2023-12-14T10:07:23;16.90;60.30
2929;DHT22;1474;51.460;7.150;2023-12-14T10:09:49;16.90;60.20
2929;DHT22;1474;51.460;7.150;2023-12-14T10:12:15;16.90;60.20
2929;DHT22;1474;51.460;7.150;2023-12-14T10:14:41;16.90;60.30
2929;DHT22;1474;51.460;7.150;2023-12-14T10:17:20;16.90;60.50
2929;DHT22;1474;51.460;7.150;2023-12-14T10:19:49;16.90;60.60
2929;DHT22;1474;51.460;7.150;2023-12-14T10:22:16;16.90;61.20
2929;DHT22;1474;51.460;7.150;2023-12-14T10:24:47;17.00;60.70
2929;DHT22;1474;51.460;7.150;2023-12-14T10:27:16;17.00;60.50
2929;DHT22;1474;51.460;7.150;2023-12-14T10:29:43;17.00;60.90
2929;DHT22;1474;51.460;7.150;2023-12-14T10:32:10;17.00;60.20
2929;DHT22;1474;51.460;7.150;2023-12-14T10:34:37;17.00;60.10
2929;DHT22;1474;51.460;7.150;2023-12-14T10:37:05;17.00;60.10
2929;DHT22;1474;51.460;7.150;2023-12-14T10:39:35;17.00;60.10
2929;DHT22;1474;51.460;7.150;2023-12-14T10:42:05;17.00;60.10
2929;DHT22;1474;51.460;7.150;2023-12-14T10:44:36;17.00;60.20
2929;DHT22;1474;51.460;7.150;2023-12-14T10:47:03;17.00;60.20
2929;DHT22;1474;51.460;7.150;2023-12-14T10:49:32;17.00;60.20
2929;DHT22;1474;51.460;7.150;2023-12-14T10:52:01;16.90;60.20
2929;DHT22;1474;51.460;7.150;2023-12-14T10:54:28;17.00;60.30
2929;DHT22;1474;51.460;7.150;2023-12-14T10:56:57;16.90;60.20
2929;DHT22;1474;51.460;7.150;2023-12-14T10:59:24;16.90;60.30
2929;DHT22;1474;51.460;7.150;2023-12-14T11:01:54;16.90;60.30
2929;DHT22;1474;51.460;7.150;2023-12-14T11:04:23;16.90;60.30
2929;DHT22;1474;51.460;7.150;2023-12-14T11:06:53;16.90;60.30
2929;DHT22;1474;51.460;7.150;2023-12-14T11:09:22;16.90;60.30
2929;DHT22;1474;51.460;7.150;2023-12-14T11:14:19;16.90;60.20
2929;DHT22;1474;51.460;7.150;2023-12-14T11:16:48;16.90;60.30
2929;DHT22;1474;51.460;7.150;2023-12-14T11:24:36;16.90;60.30
2929;DHT22;1474;51.460;7.150;2023-12-14T11:27:09;16.90;60.30
2929;DHT22;1474;51.460;7.150;2023-12-14T11:29:38;16.80;60.30
2929;DHT22;1474;51.460;7.150;2023-12-14T11:32:07;16.90;60.30
2929;DHT22;1474;51.460;7.150;2023-12-14T11:34:33;16.90;60.30
2929;DHT22;1474;51.460;7.150;2023-12-14T11:36:58;16.90;60.30
2929;DHT22;1474;51.460;7.150;2023-12-14T11:39:24;16.80;60.30
2929;DHT22;1474;51.460;7.150;2023-12-14T11:42:02;16.80;60.30
2929;DHT22;1474;51.460;7.150;2023-12-14T11:44:29;16.80;60.30
2929;DHT22;1474;51.460;7.150;2023-12-14T11:46:56;16.80;60.30
2929;DHT22;1474;51.460;7.150;2023-12-14T11:49:24;16.80;60.30
2929;DHT22;1474;51.460;7.150;2023-12-14T11:51:56;16.90;60.30
2929;DHT22;1474;51.460;7.150;2023-12-14T11:54:22;16.80;60.20
2929;DHT22;1474;51.460;7.150;2023-12-14T11:56:49;16.80;60.30
2929;DHT22;1474;51.460;7.150;2023-12-14T11:59:17;16.90;60.30
2929;DHT22;1474;51.460;7.150;2023-12-14T12:02:00;16.80;60.30
2929;DHT22;1474;51.460;7.150;2023-12-14T12:04:27;16.80;60.30
2929;DHT22;1474;51.460;7.150;2023-12-14T12:07:03;16.80;60.30
2929;DHT22;1474;51.460;7.150;2023-12-14T12:12:11;16.80;60.30
2929;DHT22;1474;51.460;7.150;2023-12-14T12:14:39;16.80;60.40
2929;DHT22;1474;51.460;7.150;2023-12-14T12:17:06;16.80;60.40
2929;DHT22;1474;51.460;7.150;2023-12-14T12:19:36;16.80;60.40
2929;DHT22;1474;51.460;7.150;2023-12-14T12:22:03;16.70;60.30
2929;DHT22;1474;51.460;7.150;2023-12-14T12:24:29;16.80;60.40
2929;DHT22;1474;51.460;7.150;2023-12-14T12:26:55;16.70;60.30
2929;DHT22;1474;51.460;7.150;2023-12-14T12:29:24;16.70;60.30
2929;DHT22;1474;51.460;7.150;2023-12-14T12:31:50;16.70;60.30
2929;DHT22;1474;51.460;7.150;2023-12-14T12:34:17;16.80;60.40
2929;DHT22;1474;51.460;7.150;2023-12-14T12:36:43;16.80;60.40
2929;DHT22;1474;51.460;7.150;2023-12-14T12:39:09;16.80;60.40
2929;DHT22;1474;51.460;7.150;2023-12-14T12:41:35;16.70;60.30
2929;DHT22;1474;51.460;7.150;2023-12-14T12:44:05;16.70;60.30
2929;DHT22;1474;51.460;7.150;2023-12-14T12:46:40;16.70;60.30
2929;DHT22;1474;51.460;7.150;2023-12-14T12:49:06;16.70;60.40
2929;DHT22;1474;51.460;7.150;2023-12-14T12:51:32;16.70;60.30
2929;DHT22;1474;51.460;7.150;2023-12-14T12:53:59;16.70;60.90
2929;DHT22;1474;51.460;7.150;2023-12-14T12:56:28;16.70;60.30
2929;DHT22;1474;51.460;7.150;2023-12-14T12:58:54;16.70;60.30
2929;DHT22;1474;51.460;7.150;2023-12-14T13:01:21;16.70;60.30
2929;DHT22;1474;51.460;7.150;2023-12-14T13:03:53;16.70;60.30
2929;DHT22;1474;51.460;7.150;2023-12-14T13:06:21;16.70;60.30
2929;DHT22;1474;51.460;7.150;2023-12-14T13:08:47;16.70;60.30
2929;DHT22;1474;51.460;7.150;2023-12-14T13:11:12;16.70;60.30
2929;DHT22;1474;51.460;7.150;2023-12-14T13:13:40;16.70;60.30
2929;DHT22;1474;51.460;7.150;2023-12-14T13:16:06;16.70;60.30
2929;DHT22;1474;51.460;7.150;2023-12-14T13:18:31;16.70;60.30
2929;DHT22;1474;51.460;7.150;2023-12-14T13:20:57;16.70;60.30
2929;DHT22;1474;51.460;7.150;2023-12-14T13:23:23;16.70;60.30
2929;DHT22;1474;51.460;7.150;2023-12-14T13:25:49;16.70;60.40
2929;DHT22;1474;51.460;7.150;2023-12-14T13:28:15;16.70;60.30
2929;DHT22;1474;51.460;7.150;2023-12-14T13:30:41;16.70;60.40
2929;DHT22;1474;51.460;7.150;2023-12-14T13:33:07;16.70;60.30
2929;DHT22;1474;51.460;7.150;2023-12-14T13:35:36;16.70;60.30
2929;DHT22;1474;51.460;7.150;2023-12-14T13:38:02;16.70;60.30
2929;DHT22;1474;51.460;7.150;2023-12-14T13:40:27;16.70;60.40
2929;DHT22;1474;51.460;7.150;2023-12-14T13:42:53;16.70;60.40
2929;DHT22;1474;51.460;7.150;2023-12-14T13:45:19;16.70;60.40
2929;DHT22;1474;51.460;7.150;2023-12-14T13:47:45;16.70;60.40
2929;DHT22;1474;51.460;7.150;2023-12-14T13:50:11;16.70;60.40
2929;DHT22;1474;51.460;7.150;2023-12-14T13:52:37;16.70;60.40
2929;DHT22;1474;51.460;7.150;2023-12-14T13:55:03;16.70;60.40
2929;DHT22;1474;51.460;7.150;2023-12-14T13:57:29;16.70;60.50
2929;DHT22;1474;51.460;7.150;2023-12-14T13:59:55;16.70;60.40
2929;DHT22;1474;51.460;7.150;2023-12-14T14:02:21;16.60;60.40
2929;DHT22;1474;51.460;7.150;2023-12-14T14:04:48;16.70;60.50
2929;DHT22;1474;51.460;7.150;2023-12-14T14:07:14;16.70;60.50
2929;DHT22;1474;51.460;7.150;2023-12-14T14:09:40;16.70;60.40
2929;DHT22;1474;51.460;7.150;2023-12-14T14:12:06;16.70;60.50
2929;DHT22;1474;51.460;7.150;2023-12-14T14:14:32;16.70;60.40
2929;DHT22;1474;51.460;7.150;2023-12-14T14:16:58;16.70;60.50
2929;DHT22;1474;51.460;7.150;2023-12-14T14:19:23;16.70;60.50
2929;DHT22;1474;51.460;7.150;2023-12-14T14:21:49;16.70;60.40
2929;DHT22;1474;51.460;7.150;2023-12-14T14:24:15;16.60;60.40
2929;DHT22;1474;51.460;7.150;2023-12-14T14:26:40;16.70;60.50
2929;DHT22;1474;51.460;7.150;2023-12-14T14:29:06;16.60;60.40
2929;DHT22;1474;51.460;7.150;2023-12-14T14:31:36;16.60;61.00
2929;DHT22;1474;51.460;7.150;2023-12-14T14:34:02;16.60;60.40
2929;DHT22;1474;51.460;7.150;2023-12-14T14:36:27;16.60;60.40
2929;DHT22;1474;51.460;7.150;2023-12-14T14:38:53;16.70;60.50
2929;DHT22;1474;51.460;7.150;2023-12-14T14:41:20;16.60;60.40
2929;DHT22;1474;51.460;7.150;2023-12-14T14:43:46;16.60;60.50
2929;DHT22;1474;51.460;7.150;2023-12-14T14:46:12;16.60;60.40
2929;DHT22;1474;51.460;7.150;2023-12-14T14:48:38;16.60;60.50
2929;DHT22;1474;51.460;7.150;2023-12-14T14:51:04;16.60;60.50
2929;DHT22;1474;51.460;7.150;2023-12-14T14:53:30;16.60;60.50
2929;DHT22;1474;51.460;7.150;2023-12-14T14:55:56;16.60;60.40
2929;DHT22;1474;51.460;7.150;2023-12-14T14:58:22;16.60;60.50
2929;DHT22;1474;51.460;7.150;2023-12-14T15:00:48;16.60;60.50
2929;DHT22;1474;51.460;7.150;2023-12-14T15:03:14;16.60;60.50
2929;DHT22;1474;51.460;7.150;2023-12-14T15:05:41;16.60;60.50
2929;DHT22;1474;51.460;7.150;2023-12-14T15:08:06;16.60;60.50
2929;DHT22;1474;51.460;7.150;2023-12-14T15:10:33;16.60;60.50
2929;DHT22;1474;51.460;7.150;2023-12-14T15:12:59;16.60;60.40
2929;DHT22;1474;51.460;7.150;2023-12-14T15:15:25;16.60;60.50
2929;DHT22;1474;51.460;7.150;2023-12-14T15:17:50;16.60;60.50
2929;DHT22;1474;51.460;7.150;2023-12-14T15:20:17;16.60;60.50
2929;DHT22;1474;51.460;7.150;2023-12-14T15:22:42;16.60;60.50
2929;DHT22;1474;51.460;7.150;2023-12-14T15:25:08;16.60;60.50
2929;DHT22;1474;51.460;7.150;2023-12-14T15:27:34;16.60;60.50
2929;DHT22;1474;51.460;7.150;2023-12-14T15:30:00;16.60;60.60
2929;DHT22;1474;51.460;7.150;2023-12-14T15:32:26;16.60;60.50
2929;DHT22;1474;51.460;7.150;2023-12-14T15:34:52;16.70;60.60
2929;DHT22;1474;51.460;7.150;2023-12-14T15:37:17;16.70;60.30
2929;DHT22;1474;51.460;7.150;2023-12-14T15:39:43;16.90;60.20
2929;DHT22;1474;51.460;7.150;2023-12-14T15:42:14;17.00;60.30
2929;DHT22;1474;51.460;7.150;2023-12-14T15:44:41;17.10;60.30
2929;DHT22;1474;51.460;7.150;2023-12-14T15:47:07;17.20;60.30
2929;DHT22;1474;51.460;7.150;2023-12-14T15:49:33;17.30;60.20
2929;DHT22;1474;51.460;7.150;2023-12-14T15:51:59;17.50;60.20
2929;DHT22;1474;51.460;7.150;2023-12-14T15:54:24;17.60;60.00
2929;DHT22;1474;51.460;7.150;2023-12-14T15:56:50;17.60;59.80
2929;DHT22;1474;51.460;7.150;2023-12-14T15:59:16;17.80;59.80
2929;DHT22;1474;51.460;7.150;2023-12-14T16:01:42;17.90;59.70
2929;DHT22;1474;51.460;7.150;2023-12-14T16:04:08;18.00;59.60
2929;DHT22;1474;51.460;7.150;2023-12-14T16:06:35;18.00;59.40
2929;DHT22;1474;51.460;7.150;2023-12-14T16:09:01;18.10;59.40
2929;DHT22;1474;51.460;7.150;2023-12-14T16:11:28;18.20;59.40
2929;DHT22;1474;51.460;7.150;2023-12-14T16:13:54;18.30;59.20
2929;DHT22;1474;51.460;7.150;2023-12-14T16:16:22;18.40;59.20
2929;DHT22;1474;51.460;7.150;2023-12-14T16:18:48;18.50;59.00
2929;DHT22;1474;51.460;7.150;2023-12-14T16:21:14;18.60;58.80
2929;DHT22;1474;51.460;7.150;2023-12-14T16:23:40;18.60;58.70
2929;DHT22;1474;51.460;7.150;2023-12-14T16:26:06;18.70;58.50
2929;DHT22;1474;51.460;7.150;2023-12-14T16:28:33;18.80;58.20
2929;DHT22;1474;51.460;7.150;2023-12-14T16:31:03;18.70;57.70
2929;DHT22;1474;51.460;7.150;2023-12-14T16:33:31;18.80;57.50
2929;DHT22;1474;51.460;7.150;2023-12-14T16:35:57;18.90;57.60
2929;DHT22;1474;51.460;7.150;2023-12-14T16:38:25;18.90;57.40
2929;DHT22;1474;51.460;7.150;2023-12-14T16:40:51;18.90;57.40
2929;DHT22;1474;51.460;7.150;2023-12-14T16:43:17;18.90;57.40
2929;DHT22;1474;51.460;7.150;2023-12-14T16:45:48;19.00;57.30
2929;DHT22;1474;51.460;7.150;2023-12-14T16:48:19;19.00;57.30
2929;DHT22;1474;51.460;7.150;2023-12-14T16:50:45;19.10;57.70
2929;DHT22;1474;51.460;7.150;2023-12-14T16:53:11;19.20;57.40
2929;DHT22;1474;51.460;7.150;2023-12-14T16:55:37;19.30;57.40
2929;DHT22;1474;51.460;7.150;2023-12-14T16:58:03;19.30;57.20
2929;DHT22;1474;51.460;7.150;2023-12-14T17:00:29;19.40;57.30
2929;DHT22;1474;51.460;7.150;2023-12-14T17:02:54;19.50;57.30
2929;DHT22;1474;51.460;7.150;2023-12-14T17:05:20;19.50;57.10
2929;DHT22;1474;51.460;7.150;2023-12-14T17:07:46;19.60;57.10
2929;DHT22;1474;51.460;7.150;2023-12-14T17:10:11;19.70;57.00
2929;DHT22;1474;51.460;7.150;2023-12-14T17:12:37;19.80;57.40
2929;DHT22;1474;51.460;7.150;2023-12-14T17:15:04;19.80;56.80
2929;DHT22;1474;51.460;7.150;2023-12-14T17:17:34;19.90;56.70
2929;DHT22;1474;51.460;7.150;2023-12-14T17:20:01;19.90;57.00
2929;DHT22;1474;51.460;7.150;2023-12-14T17:22:26;20.00;56.30
2929;DHT22;1474;51.460;7.150;2023-12-14T17:24:54;20.00;56.40
2929;DHT22;1474;51.460;7.150;2023-12-14T17:27:20;20.00;56.50
2929;DHT22;1474;51.460;7.150;2023-12-14T17:29:45;20.10;56.30
2929;DHT22;1474;51.460;7.150;2023-12-14T17:32:11;20.20;56.50
2929;DHT22;1474;51.460;7.150;2023-12-14T17:34:37;20.20;56.40
2929;DHT22;1474;51.460;7.150;2023-12-14T17:37:02;20.30;56.40
2929;DHT22;1474;51.460;7.150;2023-12-14T17:39:28;20.30;56.40
2929;DHT22;1474;51.460;7.150;2023-12-14T17:41:54;20.40;56.20
2929;DHT22;1474;51.460;7.150;2023-12-14T17:44:20;20.40;56.30
2929;DHT22;1474;51.460;7.150;2023-12-14T17:46:45;20.50;56.20
2929;DHT22;1474;51.460;7.150;2023-12-14T17:49:11;20.50;56.00
2929;DHT22;1474;51.460;7.150;2023-12-14T17:51:41;20.50;55.70
2929;DHT22;1474;51.460;7.150;2023-12-14T17:54:07;20.60;55.90
2929;DHT22;1474;51.460;7.150;2023-12-14T17:56:33;20.60;55.80
2929;DHT22;1474;51.460;7.150;2023-12-14T17:58:58;20.60;55.90
2929;DHT22;1474;51.460;7.150;2023-12-14T18:01:24;20.70;56.00
2929;DHT22;1474;51.460;7.150;2023-12-14T18:03:50;20.70;56.00
2929;DHT22;1474;51.460;7.150;2023-12-14T18:06:16;20.70;55.90
2929;DHT22;1474;51.460;7.150;2023-12-14T18:08:42;20.80;56.00
2929;DHT22;1474;51.460;7.150;2023-12-14T18:11:08;20.80;56.30
2929;DHT22;1474;51.460;7.150;2023-12-14T18:13:36;20.90;55.90
2929;DHT22;1474;51.460;7.150;2023-12-14T18:16:02;20.90;56.00
2929;DHT22;1474;51.460;7.150;2023-12-14T18:18:28;20.90;55.80
2929;DHT22;1474;51.460;7.150;2023-12-14T18:20:54;20.90;56.50
2929;DHT22;1474;51.460;7.150;2023-12-14T18:23:19;20.90;55.80
2929;DHT22;1474;51.460;7.150;2023-12-14T18:25:45;20.80;55.80
2929;DHT22;1474;51.460;7.150;2023-12-14T18:28:12;20.80;55.70
2929;DHT22;1474;51.460;7.150;2023-12-14T18:30:39;20.80;55.70
2929;DHT22;1474;51.460;7.150;2023-12-14T18:33:04;20.80;55.80
2929;DHT22;1474;51.460;7.150;2023-12-14T18:35:30;20.80;55.70
2929;DHT22;1474;51.460;7.150;2023-12-14T18:37:56;20.70;55.70
2929;DHT22;1474;51.460;7.150;2023-12-14T18:40:23;20.70;55.70
2929;DHT22;1474;51.460;7.150;2023-12-14T18:42:51;20.70;55.70
2929;DHT22;1474;51.460;7.150;2023-12-14T18:45:17;20.60;55.80
2929;DHT22;1474;51.460;7.150;2023-12-14T18:47:43;20.60;55.80
2929;DHT22;1474;51.460;7.150;2023-12-14T18:50:09;20.50;55.80
2929;DHT22;1474;51.460;7.150;2023-12-14T18:52:35;20.50;56.10
2929;DHT22;1474;51.460;7.150;2023-12-14T18:55:01;20.40;55.90
2929;DHT22;1474;51.460;7.150;2023-12-14T18:57:26;20.40;56.50
2929;DHT22;1474;51.460;7.150;2023-12-14T18:59:52;20.30;55.90
2929;DHT22;1474;51.460;7.150;2023-12-14T19:02:18;20.30;56.00
2929;DHT22;1474;51.460;7.150;2023-12-14T19:04:44;20.30;56.10
2929;DHT22;1474;51.460;7.150;2023-12-14T19:07:10;20.20;56.10
2929;DHT22;1474;51.460;7.150;2023-12-14T19:09:36;20.20;56.10
2929;DHT22;1474;51.460;7.150;2023-12-14T19:12:02;20.20;56.10
2929;DHT22;1474;51.460;7.150;2023-12-14T19:14:28;20.10;56.10
2929;DHT22;1474;51.460;7.150;2023-12-14T19:16:55;20.10;56.30
2929;DHT22;1474;51.460;7.150;2023-12-14T19:19:21;20.00;56.20
2929;DHT22;1474;51.460;7.150;2023-12-14T19:21:47;20.00;56.80
2929;DHT22;1474;51.460;7.150;2023-12-14T19:24:13;19.90;56.30
2929;DHT22;1474;51.460;7.150;2023-12-14T19:26:39;19.90;56.40
2929;DHT22;1474;51.460;7.150;2023-12-14T19:29:05;19.90;56.50
2929;DHT22;1474;51.460;7.150;2023-12-14T19:31:31;19.80;56.60
2929;DHT22;1474;51.460;7.150;2023-12-14T19:33:57;19.70;56.70
2929;DHT22;1474;51.460;7.150;2023-12-14T19:36:23;19.60;56.70
2929;DHT22;1474;51.460;7.150;2023-12-14T19:38:48;19.60;57.30
2929;DHT22;1474;51.460;7.150;2023-12-14T19:41:19;19.60;57.40
2929;DHT22;1474;51.460;7.150;2023-12-14T19:43:45;19.60;57.40
2929;DHT22;1474;51.460;7.150;2023-12-14T19:46:14;19.50;56.90
2929;DHT22;1474;51.460;7.150;2023-12-14T19:48:41;19.50;57.00
2929;DHT22;1474;51.460;7.150;2023-12-14T19:51:07;19.40;57.00
2929;DHT22;1474;51.460;7.150;2023-12-14T19:53:33;19.40;57.10
2929;DHT22;1474;51.460;7.150;2023-12-14T19:55:59;19.40;57.10
2929;DHT22;1474;51.460;7.150;2023-12-14T19:58:25;19.40;57.10
2929;DHT22;1474;51.460;7.150;2023-12-14T20:00:50;19.30;57.70
2929;DHT22;1474;51.460;7.150;2023-12-14T20:03:16;19.30;57.10
2929;DHT22;1474;51.460;7.150;2023-12-14T20:05:42;19.30;57.10
2929;DHT22;1474;51.460;7.150;2023-12-14T20:08:10;19.20;57.10
2929;DHT22;1474;51.460;7.150;2023-12-14T20:10:36;19.20;57.20
2929;DHT22;1474;51.460;7.150;2023-12-14T20:13:01;19.20;57.20
2929;DHT22;1474;51.460;7.150;2023-12-14T20:15:28;19.20;57.30
2929;DHT22;1474;51.460;7.150;2023-12-14T20:17:54;19.20;57.30
2929;DHT22;1474;51.460;7.150;2023-12-14T20:20:20;19.20;57.40
2929;DHT22;1474;51.460;7.150;2023-12-14T20:22:46;19.20;57.30
2929;DHT22;1474;51.460;7.150;2023-12-14T20:25:11;19.10;57.40
2929;DHT22;1474;51.460;7.150;2023-12-14T20:27:37;19.10;57.40
2929;DHT22;1474;51.460;7.150;2023-12-14T20:30:04;19.10;57.50
2929;DHT22;1474;51.460;7.150;2023-12-14T20:32:31;19.10;57.40
2929;DHT22;1474;51.460;7.150;2023-12-14T20:34:56;19.10;57.50
2929;DHT22;1474;51.460;7.150;2023-12-14T20:37:22;19.00;57.60
2929;DHT22;1474;51.460;7.150;2023-12-14T20:39:52;19.00;57.50
2929;DHT22;1474;51.460;7.150;2023-12-14T20:42:18;18.90;57.40
2929;DHT22;1474;51.460;7.150;2023-12-14T20:44:43;19.00;57.50
2929;DHT22;1474;51.460;7.150;2023-12-14T20:47:10;19.00;57.50
2929;DHT22;1474;51.460;7.150;2023-12-14T20:49:36;18.90;57.60
2929;DHT22;1474;51.460;7.150;2023-12-14T20:52:02;18.90;58.00
2929;DHT22;1474;51.460;7.150;2023-12-14T20:54:28;18.90;57.50
2929;DHT22;1474;51.460;7.150;2023-12-14T20:56:53;18.90;57.50
2929;DHT22;1474;51.460;7.150;2023-12-14T20:59:19;18.90;57.50
2929;DHT22;1474;51.460;7.150;2023-12-14T21:01:48;18.80;57.50
2929;DHT22;1474;51.460;7.150;2023-12-14T21:04:13;18.80;58.10
2929;DHT22;1474;51.460;7.150;2023-12-14T21:06:39;18.80;57.60
2929;DHT22;1474;51.460;7.150;2023-12-14T21:09:05;18.80;57.70
2929;DHT22;1474;51.460;7.150;2023-12-14T21:11:31;18.70;57.70
2929;DHT22;1474;51.460;7.150;2023-12-14T21:13:56;18.70;57.70
2929;DHT22;1474;51.460;7.150;2023-12-14T21:16:22;18.70;57.70
2929;DHT22;1474;51.460;7.150;2023-12-14T21:18:48;18.70;58.40
2929;DHT22;1474;51.460;7.150;2023-12-14T21:21:14;18.70;57.90
2929;DHT22;1474;51.460;7.150;2023-12-14T21:23:40;18.60;57.90
2929;DHT22;1474;51.460;7.150;2023-12-14T21:26:06;18.60;57.90
2929;DHT22;1474;51.460;7.150;2023-12-14T21:28:37;18.60;57.80
2929;DHT22;1474;51.460;7.150;2023-12-14T21:31:03;18.60;57.90
2929;DHT22;1474;51.460;7.150;2023-12-14T21:33:30;18.60;57.90
2929;DHT22;1474;51.460;7.150;2023-12-14T21:35:56;18.60;57.90
2929;DHT22;1474;51.460;7.150;2023-12-14T21:38:22;18.60;57.90
2929;DHT22;1474;51.460;7.150;2023-12-14T21:40:48;18.60;58.00
2929;DHT22;1474;51.460;7.150;2023-12-14T21:43:15;18.50;57.90
2929;DHT22;1474;51.460;7.150;2023-12-14T21:45:42;18.60;57.90
2929;DHT22;1474;51.460;7.150;2023-12-14T21:48:08;18.50;57.90
2929;DHT22;1474;51.460;7.150;2023-12-14T21:50:34;18.50;58.40
2929;DHT22;1474;51.460;7.150;2023-12-14T21:53:00;18.50;57.90
2929;DHT22;1474;51.460;7.150;2023-12-14T21:55:26;18.50;58.00
2929;DHT22;1474;51.460;7.150;2023-12-14T21:57:52;18.50;57.90
2929;DHT22;1474;51.460;7.150;2023-12-14T22:00:18;18.50;58.10
2929;DHT22;1474;51.460;7.150;2023-12-14T22:02:45;18.50;58.00
2929;DHT22;1474;51.460;7.150;2023-12-14T22:05:11;18.40;58.00
2929;DHT22;1474;51.460;7.150;2023-12-14T22:07:37;18.50;58.50
2929;DHT22;1474;51.460;7.150;2023-12-14T22:10:03;18.50;58.20